Cundys Harbor, Maine
Current Conditions -  °F | °C
As of 12:53 PM on Thursday 29 Jan 2015 (Local Time) from KIWI Reporting Station
Clear Clear  
Wind Chill: 29°   Ceiling: Unl
Heat Index: 29°   Visibility: 10mi
Dew Point:   Wind: 0mph
Humidity: 29%   Direction: NA
Pressure: 30.25"   Gusts: NA
Location:  43.903°N, 69.9809°W
Report Text: KIWI 291753Z AUTO 00000KT 10SM CLR M02/M18 A3025 RMK AO2 SLP245 T10171178 11011 21228 58026
Loading
Personal Weather Stations






























Interactive Weather Map New forecast layout! Learn more

10-Day Weather Forecast

Advertisements
Track Severe Weather on mobile